Weather at Viewfield Airstrip

Public forecast

Using degrees Celsius for public forecast. Weather courtesy of forecast.io.

Closest aviation weather report (METAR) to Viewfield Airstrip

Closest report is RAF Lossiemouth, 5.4 nm (10.0 km) WNW. Retrieved 2021/06/16 23:50 UTC (10 minutes ago):

EGQS 162350Z 19007KT CAVOK 07/04 Q1008 RMK BLU

Closest aviation forecast (TAF) to Viewfield Airstrip

Closest forecast is RAF Lossiemouth, 5.4 nm (10.0 km) WNW. Retrieved 2021/06/16 21:40 UTC (2 hours ago):

TAF EGQS 161934Z 1621/1715 24014KT CAVOK